sensor_id;sensor_type;location;lat;lon;timestamp;P1;durP1;ratioP1;P2;durP2;ratioP2
30408;SDS011;17207;52.960;5.916;2023-02-15T00:01:41;8.70;;;4.80;;
30408;SDS011;17207;52.960;5.916;2023-02-15T00:04:07;7.95;;;4.80;;
30408;SDS011;17207;52.960;5.916;2023-02-15T00:06:34;6.25;;;4.28;;
30408;SDS011;17207;52.960;5.916;2023-02-15T00:09:00;9.15;;;4.85;;
30408;SDS011;17207;52.960;5.916;2023-02-15T00:11:26;7.00;;;5.18;;
30408;SDS011;17207;52.960;5.916;2023-02-15T00:14:05;6.43;;;4.32;;
30408;SDS011;17207;52.960;5.916;2023-02-15T00:16:32;7.15;;;5.00;;
30408;SDS011;17207;52.960;5.916;2023-02-15T00:18:58;5.70;;;4.43;;
30408;SDS011;17207;52.960;5.916;2023-02-15T00:21:27;6.05;;;4.05;;
30408;SDS011;17207;52.960;5.916;2023-02-15T00:23:54;8.50;;;4.63;;
30408;SDS011;17207;52.960;5.916;2023-02-15T00:26:20;7.28;;;5.07;;
30408;SDS011;17207;52.960;5.916;2023-02-15T00:28:46;7.35;;;4.60;;
30408;SDS011;17207;52.960;5.916;2023-02-15T00:31:12;6.15;;;4.13;;
30408;SDS011;17207;52.960;5.916;2023-02-15T00:33:38;6.45;;;4.30;;
30408;SDS011;17207;52.960;5.916;2023-02-15T00:36:05;7.22;;;4.70;;
30408;SDS011;17207;52.960;5.916;2023-02-15T00:38:32;6.50;;;4.10;;
30408;SDS011;17207;52.960;5.916;2023-02-15T00:40:59;6.07;;;3.85;;
30408;SDS011;17207;52.960;5.916;2023-02-15T00:43:26;5.05;;;3.95;;
30408;SDS011;17207;52.960;5.916;2023-02-15T00:45:52;5.70;;;4.07;;
30408;SDS011;17207;52.960;5.916;2023-02-15T00:48:18;7.82;;;4.75;;
30408;SDS011;17207;52.960;5.916;2023-02-15T00:50:45;6.88;;;4.30;;
30408;SDS011;17207;52.960;5.916;2023-02-15T00:53:11;6.85;;;3.90;;
30408;SDS011;17207;52.960;5.916;2023-02-15T00:55:38;6.60;;;4.40;;
30408;SDS011;17207;52.960;5.916;2023-02-15T00:58:05;6.45;;;4.70;;
30408;SDS011;17207;52.960;5.916;2023-02-15T01:00:31;9.15;;;4.68;;
30408;SDS011;17207;52.960;5.916;2023-02-15T01:02:57;5.22;;;4.28;;
30408;SDS011;17207;52.960;5.916;2023-02-15T01:05:23;6.68;;;4.35;;
30408;SDS011;17207;52.960;5.916;2023-02-15T01:07:49;7.57;;;3.63;;
30408;SDS011;17207;52.960;5.916;2023-02-15T01:10:15;7.13;;;4.55;;
30408;SDS011;17207;52.960;5.916;2023-02-15T01:12:41;7.55;;;4.10;;
30408;SDS011;17207;52.960;5.916;2023-02-15T01:15:08;6.60;;;4.30;;
30408;SDS011;17207;52.960;5.916;2023-02-15T01:17:34;7.45;;;4.55;;
30408;SDS011;17207;52.960;5.916;2023-02-15T01:20:00;6.38;;;4.30;;
30408;SDS011;17207;52.960;5.916;2023-02-15T01:22:26;6.18;;;4.00;;
30408;SDS011;17207;52.960;5.916;2023-02-15T01:24:52;7.10;;;4.47;;
30408;SDS011;17207;52.960;5.916;2023-02-15T01:27:18;6.35;;;4.25;;
30408;SDS011;17207;52.960;5.916;2023-02-15T01:29:44;5.50;;;4.07;;
30408;SDS011;17207;52.960;5.916;2023-02-15T01:32:12;8.68;;;4.30;;
30408;SDS011;17207;52.960;5.916;2023-02-15T01:34:38;6.93;;;4.38;;
30408;SDS011;17207;52.960;5.916;2023-02-15T01:37:04;6.07;;;4.30;;
30408;SDS011;17207;52.960;5.916;2023-02-15T01:39:30;7.47;;;3.90;;
30408;SDS011;17207;52.960;5.916;2023-02-15T01:41:56;5.57;;;3.95;;
30408;SDS011;17207;52.960;5.916;2023-02-15T01:47:07;7.53;;;4.32;;
30408;SDS011;17207;52.960;5.916;2023-02-15T01:49:33;6.28;;;4.35;;
30408;SDS011;17207;52.960;5.916;2023-02-15T01:51:59;6.57;;;4.40;;
30408;SDS011;17207;52.960;5.916;2023-02-15T01:54:27;6.40;;;4.45;;
30408;SDS011;17207;52.960;5.916;2023-02-15T01:56:55;5.43;;;3.85;;
30408;SDS011;17207;52.960;5.916;2023-02-15T01:59:23;5.00;;;3.90;;
30408;SDS011;17207;52.960;5.916;2023-02-15T02:01:51;5.73;;;3.93;;
30408;SDS011;17207;52.960;5.916;2023-02-15T02:04:20;6.70;;;3.97;;
30408;SDS011;17207;52.960;5.916;2023-02-15T02:06:48;5.82;;;4.00;;
30408;SDS011;17207;52.960;5.916;2023-02-15T02:09:15;5.57;;;4.55;;
30408;SDS011;17207;52.960;5.916;2023-02-15T02:11:42;5.10;;;3.47;;
30408;SDS011;17207;52.960;5.916;2023-02-15T02:14:10;6.85;;;4.22;;
30408;SDS011;17207;52.960;5.916;2023-02-15T02:16:42;5.60;;;3.97;;
30408;SDS011;17207;52.960;5.916;2023-02-15T02:44:49;5.55;;;4.05;;
30408;SDS011;17207;52.960;5.916;2023-02-15T02:49:43;4.82;;;3.45;;
30408;SDS011;17207;52.960;5.916;2023-02-15T02:54:54;4.65;;;3.20;;
30408;SDS011;17207;52.960;5.916;2023-02-15T02:57:20;4.47;;;3.38;;
30408;SDS011;17207;52.960;5.916;2023-02-15T02:59:49;6.10;;;3.72;;
30408;SDS011;17207;52.960;5.916;2023-02-15T03:02:26;5.22;;;3.55;;
30408;SDS011;17207;52.960;5.916;2023-02-15T03:04:55;4.70;;;3.58;;
30408;SDS011;17207;52.960;5.916;2023-02-15T03:07:23;6.07;;;3.75;;
30408;SDS011;17207;52.960;5.916;2023-02-15T03:09:54;7.05;;;3.90;;
30408;SDS011;17207;52.960;5.916;2023-02-15T03:14:49;4.57;;;3.63;;
30408;SDS011;17207;52.960;5.916;2023-02-15T03:17:15;5.88;;;3.42;;
30408;SDS011;17207;52.960;5.916;2023-02-15T03:19:42;5.13;;;3.72;;
30408;SDS011;17207;52.960;5.916;2023-02-15T03:22:12;6.70;;;4.00;;
30408;SDS011;17207;52.960;5.916;2023-02-15T03:25:02;4.53;;;3.33;;
30408;SDS011;17207;52.960;5.916;2023-02-15T03:27:32;5.10;;;3.20;;
30408;SDS011;17207;52.960;5.916;2023-02-15T03:29:59;6.15;;;3.63;;
30408;SDS011;17207;52.960;5.916;2023-02-15T03:32:25;4.72;;;3.33;;
30408;SDS011;17207;52.960;5.916;2023-02-15T03:40:08;6.65;;;3.75;;
30408;SDS011;17207;52.960;5.916;2023-02-15T03:42:52;6.25;;;3.65;;
30408;SDS011;17207;52.960;5.916;2023-02-15T03:45:22;6.57;;;3.67;;
30408;SDS011;17207;52.960;5.916;2023-02-15T03:47:50;4.85;;;3.80;;
30408;SDS011;17207;52.960;5.916;2023-02-15T03:50:18;3.88;;;3.20;;
30408;SDS011;17207;52.960;5.916;2023-02-15T03:53:05;5.30;;;3.83;;
30408;SDS011;17207;52.960;5.916;2023-02-15T03:55:33;6.47;;;4.63;;
30408;SDS011;17207;52.960;5.916;2023-02-15T03:57:59;4.90;;;3.40;;
30408;SDS011;17207;52.960;5.916;2023-02-15T04:00:47;5.35;;;3.80;;
30408;SDS011;17207;52.960;5.916;2023-02-15T04:03:39;5.72;;;3.67;;
30408;SDS011;17207;52.960;5.916;2023-02-15T04:06:05;4.68;;;3.10;;
30408;SDS011;17207;52.960;5.916;2023-02-15T04:08:31;4.57;;;3.15;;
30408;SDS011;17207;52.960;5.916;2023-02-15T04:11:16;4.90;;;3.35;;
30408;SDS011;17207;52.960;5.916;2023-02-15T04:13:42;4.55;;;3.13;;
30408;SDS011;17207;52.960;5.916;2023-02-15T04:16:08;5.32;;;3.40;;
30408;SDS011;17207;52.960;5.916;2023-02-15T04:18:36;5.45;;;3.67;;
30408;SDS011;17207;52.960;5.916;2023-02-15T04:21:22;5.85;;;3.47;;
30408;SDS011;17207;52.960;5.916;2023-02-15T04:24:07;4.57;;;3.30;;
30408;SDS011;17207;52.960;5.916;2023-02-15T04:26:52;6.13;;;3.70;;
30408;SDS011;17207;52.960;5.916;2023-02-15T04:29:18;4.53;;;3.13;;
30408;SDS011;17207;52.960;5.916;2023-02-15T04:31:45;4.30;;;3.30;;
30408;SDS011;17207;52.960;5.916;2023-02-15T04:34:11;5.90;;;3.88;;
30408;SDS011;17207;52.960;5.916;2023-02-15T04:36:38;4.85;;;3.85;;
30408;SDS011;17207;52.960;5.916;2023-02-15T04:39:04;5.03;;;3.30;;
30408;SDS011;17207;52.960;5.916;2023-02-15T04:41:30;5.22;;;3.38;;
30408;SDS011;17207;52.960;5.916;2023-02-15T04:43:56;4.85;;;3.45;;
30408;SDS011;17207;52.960;5.916;2023-02-15T04:46:22;6.47;;;3.13;;
30408;SDS011;17207;52.960;5.916;2023-02-15T04:48:48;6.45;;;3.63;;
30408;SDS011;17207;52.960;5.916;2023-02-15T04:51:14;5.03;;;3.28;;
30408;SDS011;17207;52.960;5.916;2023-02-15T04:53:40;4.95;;;3.45;;
30408;SDS011;17207;52.960;5.916;2023-02-15T04:56:06;7.38;;;3.30;;
30408;SDS011;17207;52.960;5.916;2023-02-15T04:58:32;4.85;;;3.58;;
30408;SDS011;17207;52.960;5.916;2023-02-15T05:01:00;7.93;;;3.10;;
30408;SDS011;17207;52.960;5.916;2023-02-15T05:03:26;6.07;;;3.20;;
30408;SDS011;17207;52.960;5.916;2023-02-15T05:05:52;5.70;;;3.88;;
30408;SDS011;17207;52.960;5.916;2023-02-15T05:08:18;4.65;;;3.55;;
30408;SDS011;17207;52.960;5.916;2023-02-15T05:10:44;4.10;;;3.05;;
30408;SDS011;17207;52.960;5.916;2023-02-15T05:13:10;5.90;;;3.83;;
30408;SDS011;17207;52.960;5.916;2023-02-15T05:15:36;6.13;;;3.70;;
30408;SDS011;17207;52.960;5.916;2023-02-15T05:18:02;5.85;;;3.90;;
30408;SDS011;17207;52.960;5.916;2023-02-15T05:20:28;5.07;;;3.65;;
30408;SDS011;17207;52.960;5.916;2023-02-15T05:22:54;5.40;;;3.35;;
30408;SDS011;17207;52.960;5.916;2023-02-15T05:25:20;4.65;;;3.60;;
30408;SDS011;17207;52.960;5.916;2023-02-15T05:28:05;4.00;;;2.80;;
30408;SDS011;17207;52.960;5.916;2023-02-15T05:30:46;7.55;;;4.25;;
30408;SDS011;17207;52.960;5.916;2023-02-15T05:33:13;6.38;;;3.38;;
30408;SDS011;17207;52.960;5.916;2023-02-15T05:35:39;6.88;;;3.70;;
30408;SDS011;17207;52.960;5.916;2023-02-15T05:38:05;3.88;;;3.08;;
30408;SDS011;17207;52.960;5.916;2023-02-15T05:40:31;6.00;;;3.35;;
30408;SDS011;17207;52.960;5.916;2023-02-15T05:42:57;4.38;;;3.45;;
30408;SDS011;17207;52.960;5.916;2023-02-15T05:45:23;4.50;;;3.58;;
30408;SDS011;17207;52.960;5.916;2023-02-15T05:47:49;5.07;;;3.85;;
30408;SDS011;17207;52.960;5.916;2023-02-15T05:50:15;5.88;;;3.92;;
30408;SDS011;17207;52.960;5.916;2023-02-15T05:52:41;6.07;;;3.78;;
30408;SDS011;17207;52.960;5.916;2023-02-15T05:55:07;6.05;;;3.53;;
30408;SDS011;17207;52.960;5.916;2023-02-15T05:57:34;6.05;;;3.65;;
30408;SDS011;17207;52.960;5.916;2023-02-15T06:00:01;5.15;;;3.38;;
30408;SDS011;17207;52.960;5.916;2023-02-15T06:02:29;5.07;;;3.42;;
30408;SDS011;17207;52.960;5.916;2023-02-15T06:04:55;5.95;;;3.53;;
30408;SDS011;17207;52.960;5.916;2023-02-15T06:07:21;5.85;;;3.85;;
30408;SDS011;17207;52.960;5.916;2023-02-15T06:09:47;6.47;;;4.10;;
30408;SDS011;17207;52.960;5.916;2023-02-15T06:12:13;4.43;;;3.53;;
30408;SDS011;17207;52.960;5.916;2023-02-15T06:14:39;4.15;;;3.13;;
30408;SDS011;17207;52.960;5.916;2023-02-15T06:17:05;4.82;;;3.50;;
30408;SDS011;17207;52.960;5.916;2023-02-15T06:19:31;4.97;;;3.70;;
30408;SDS011;17207;52.960;5.916;2023-02-15T06:21:57;5.13;;;3.55;;
30408;SDS011;17207;52.960;5.916;2023-02-15T06:24:24;5.80;;;3.90;;
30408;SDS011;17207;52.960;5.916;2023-02-15T06:26:50;4.30;;;3.33;;
30408;SDS011;17207;52.960;5.916;2023-02-15T06:29:16;4.97;;;3.40;;
30408;SDS011;17207;52.960;5.916;2023-02-15T06:31:42;5.85;;;3.65;;
30408;SDS011;17207;52.960;5.916;2023-02-15T06:34:08;5.50;;;3.72;;
30408;SDS011;17207;52.960;5.916;2023-02-15T06:36:34;5.47;;;3.53;;
30408;SDS011;17207;52.960;5.916;2023-02-15T06:39:00;4.75;;;3.75;;
30408;SDS011;17207;52.960;5.916;2023-02-15T06:41:28;4.30;;;3.40;;
30408;SDS011;17207;52.960;5.916;2023-02-15T06:43:55;4.67;;;3.40;;
30408;SDS011;17207;52.960;5.916;2023-02-15T06:46:21;6.75;;;4.10;;
30408;SDS011;17207;52.960;5.916;2023-02-15T06:48:47;5.43;;;3.78;;
30408;SDS011;17207;52.960;5.916;2023-02-15T06:51:13;4.78;;;3.55;;
30408;SDS011;17207;52.960;5.916;2023-02-15T06:53:39;4.75;;;3.28;;
30408;SDS011;17207;52.960;5.916;2023-02-15T06:56:07;5.45;;;3.78;;
30408;SDS011;17207;52.960;5.916;2023-02-15T06:58:37;6.15;;;3.70;;
30408;SDS011;17207;52.960;5.916;2023-02-15T07:01:04;5.22;;;3.65;;
30408;SDS011;17207;52.960;5.916;2023-02-15T07:03:30;4.18;;;3.28;;
30408;SDS011;17207;52.960;5.916;2023-02-15T07:05:57;4.75;;;3.28;;
30408;SDS011;17207;52.960;5.916;2023-02-15T07:08:24;6.30;;;3.30;;
30408;SDS011;17207;52.960;5.916;2023-02-15T07:10:50;11.57;;;4.90;;
30408;SDS011;17207;52.960;5.916;2023-02-15T07:13:17;7.00;;;3.92;;
30408;SDS011;17207;52.960;5.916;2023-02-15T07:15:43;6.68;;;3.75;;
30408;SDS011;17207;52.960;5.916;2023-02-15T07:18:09;5.25;;;3.60;;
30408;SDS011;17207;52.960;5.916;2023-02-15T07:20:36;5.05;;;3.13;;
30408;SDS011;17207;52.960;5.916;2023-02-15T07:23:03;7.18;;;4.45;;
30408;SDS011;17207;52.960;5.916;2023-02-15T07:25:29;8.00;;;5.68;;
30408;SDS011;17207;52.960;5.916;2023-02-15T07:27:58;13.55;;;5.13;;
30408;SDS011;17207;52.960;5.916;2023-02-15T07:30:25;5.45;;;3.70;;
30408;SDS011;17207;52.960;5.916;2023-02-15T07:32:54;6.05;;;3.88;;
30408;SDS011;17207;52.960;5.916;2023-02-15T07:35:45;4.68;;;3.25;;
30408;SDS011;17207;52.960;5.916;2023-02-15T07:38:11;6.05;;;3.65;;
30408;SDS011;17207;52.960;5.916;2023-02-15T07:40:37;11.35;;;3.30;;
30408;SDS011;17207;52.960;5.916;2023-02-15T07:43:03;4.68;;;3.40;;
30408;SDS011;17207;52.960;5.916;2023-02-15T07:45:29;5.15;;;3.63;;
30408;SDS011;17207;52.960;5.916;2023-02-15T07:47:55;6.35;;;3.63;;
30408;SDS011;17207;52.960;5.916;2023-02-15T07:50:21;5.68;;;3.28;;
30408;SDS011;17207;52.960;5.916;2023-02-15T07:52:47;7.10;;;3.30;;
30408;SDS011;17207;52.960;5.916;2023-02-15T07:55:13;7.40;;;4.13;;
30408;SDS011;17207;52.960;5.916;2023-02-15T07:57:43;6.40;;;3.80;;
30408;SDS011;17207;52.960;5.916;2023-02-15T08:00:10;7.78;;;3.75;;
30408;SDS011;17207;52.960;5.916;2023-02-15T08:02:37;6.80;;;4.32;;
30408;SDS011;17207;52.960;5.916;2023-02-15T08:05:03;5.28;;;3.38;;
30408;SDS011;17207;52.960;5.916;2023-02-15T08:07:29;10.02;;;3.45;;
30408;SDS011;17207;52.960;5.916;2023-02-15T08:09:55;6.70;;;3.70;;
30408;SDS011;17207;52.960;5.916;2023-02-15T08:12:21;6.57;;;4.30;;
30408;SDS011;17207;52.960;5.916;2023-02-15T08:14:47;8.02;;;4.65;;
30408;SDS011;17207;52.960;5.916;2023-02-15T08:17:13;11.18;;;4.65;;
30408;SDS011;17207;52.960;5.916;2023-02-15T08:19:39;6.07;;;3.80;;
30408;SDS011;17207;52.960;5.916;2023-02-15T08:22:06;8.10;;;4.57;;
30408;SDS011;17207;52.960;5.916;2023-02-15T08:24:33;7.15;;;4.45;;
30408;SDS011;17207;52.960;5.916;2023-02-15T08:27:02;10.25;;;4.13;;
30408;SDS011;17207;52.960;5.916;2023-02-15T08:29:29;7.60;;;4.82;;
30408;SDS011;17207;52.960;5.916;2023-02-15T08:31:56;9.80;;;4.63;;
30408;SDS011;17207;52.960;5.916;2023-02-15T08:34:23;6.63;;;4.38;;
30408;SDS011;17207;52.960;5.916;2023-02-15T08:36:50;9.90;;;4.70;;
30408;SDS011;17207;52.960;5.916;2023-02-15T08:39:16;6.63;;;4.03;;
30408;SDS011;17207;52.960;5.916;2023-02-15T08:41:43;6.10;;;3.70;;
30408;SDS011;17207;52.960;5.916;2023-02-15T08:44:09;4.90;;;3.57;;
30408;SDS011;17207;52.960;5.916;2023-02-15T08:46:39;6.57;;;3.42;;
30408;SDS011;17207;52.960;5.916;2023-02-15T08:49:06;8.57;;;3.42;;
30408;SDS011;17207;52.960;5.916;2023-02-15T08:51:33;5.35;;;3.65;;
30408;SDS011;17207;52.960;5.916;2023-02-15T08:54:01;5.88;;;3.30;;
30408;SDS011;17207;52.960;5.916;2023-02-15T08:56:28;6.68;;;3.38;;
30408;SDS011;17207;52.960;5.916;2023-02-15T08:58:56;7.38;;;3.78;;
30408;SDS011;17207;52.960;5.916;2023-02-15T09:01:26;7.40;;;4.15;;
30408;SDS011;17207;52.960;5.916;2023-02-15T09:04:02;5.75;;;3.83;;
30408;SDS011;17207;52.960;5.916;2023-02-15T09:06:29;9.07;;;4.00;;
30408;SDS011;17207;52.960;5.916;2023-02-15T09:08:55;11.52;;;5.05;;
30408;SDS011;17207;52.960;5.916;2023-02-15T09:11:22;15.25;;;6.65;;
30408;SDS011;17207;52.960;5.916;2023-02-15T09:14:34;9.52;;;5.25;;
30408;SDS011;17207;52.960;5.916;2023-02-15T09:16:35;9.75;;;6.13;;
30408;SDS011;17207;52.960;5.916;2023-02-15T09:19:02;16.88;;;6.72;;
30408;SDS011;17207;52.960;5.916;2023-02-15T09:21:32;12.35;;;4.55;;
30408;SDS011;17207;52.960;5.916;2023-02-15T09:23:59;10.50;;;4.25;;
30408;SDS011;17207;52.960;5.916;2023-02-15T09:26:26;11.73;;;6.15;;
30408;SDS011;17207;52.960;5.916;2023-02-15T09:28:53;9.00;;;5.30;;
30408;SDS011;17207;52.960;5.916;2023-02-15T09:31:30;8.68;;;4.50;;
30408;SDS011;17207;52.960;5.916;2023-02-15T09:33:57;11.57;;;4.80;;
30408;SDS011;17207;52.960;5.916;2023-02-15T09:36:24;7.10;;;4.50;;
30408;SDS011;17207;52.960;5.916;2023-02-15T09:39:06;6.95;;;4.88;;
30408;SDS011;17207;52.960;5.916;2023-02-15T09:55:01;13.25;;;5.05;;
30408;SDS011;17207;52.960;5.916;2023-02-15T09:57:31;8.63;;;4.65;;
30408;SDS011;17207;52.960;5.916;2023-02-15T10:00:06;7.93;;;4.43;;
30408;SDS011;17207;52.960;5.916;2023-02-15T10:02:45;9.27;;;5.35;;
30408;SDS011;17207;52.960;5.916;2023-02-15T10:08:10;13.68;;;4.82;;
30408;SDS011;17207;52.960;5.916;2023-02-15T10:18:52;9.18;;;5.03;;
30408;SDS011;17207;52.960;5.916;2023-02-15T10:24:08;9.68;;;4.88;;
30408;SDS011;17207;52.960;5.916;2023-02-15T10:29:08;10.63;;;5.07;;
30408;SDS011;17207;52.960;5.916;2023-02-15T10:31:48;7.80;;;4.70;;
30408;SDS011;17207;52.960;5.916;2023-02-15T10:34:19;9.73;;;5.10;;
30408;SDS011;17207;52.960;5.916;2023-02-15T10:42:08;9.10;;;4.75;;
30408;SDS011;17207;52.960;5.916;2023-02-15T10:52:13;7.82;;;5.07;;
30408;SDS011;17207;52.960;5.916;2023-02-15T10:54:52;9.15;;;4.85;;
30408;SDS011;17207;52.960;5.916;2023-02-15T11:02:37;12.40;;;4.68;;
30408;SDS011;17207;52.960;5.916;2023-02-15T11:05:25;8.75;;;5.28;;
30408;SDS011;17207;52.960;5.916;2023-02-15T11:07:52;8.90;;;4.78;;
30408;SDS011;17207;52.960;5.916;2023-02-15T11:12:49;11.23;;;5.78;;
30408;SDS011;17207;52.960;5.916;2023-02-15T11:17:56;8.65;;;5.00;;
30408;SDS011;17207;52.960;5.916;2023-02-15T11:20:30;9.85;;;5.32;;
30408;SDS011;17207;52.960;5.916;2023-02-15T11:22:57;12.18;;;5.60;;
30408;SDS011;17207;52.960;5.916;2023-02-15T11:25:26;9.25;;;5.38;;
30408;SDS011;17207;52.960;5.916;2023-02-15T11:27:53;10.43;;;6.28;;
30408;SDS011;17207;52.960;5.916;2023-02-15T11:30:25;10.35;;;5.97;;
30408;SDS011;17207;52.960;5.916;2023-02-15T11:32:58;9.60;;;5.57;;
30408;SDS011;17207;52.960;5.916;2023-02-15T11:40:46;10.85;;;5.93;;
30408;SDS011;17207;52.960;5.916;2023-02-15T11:45:45;9.95;;;5.28;;
30408;SDS011;17207;52.960;5.916;2023-02-15T11:48:12;8.57;;;5.03;;
30408;SDS011;17207;52.960;5.916;2023-02-15T11:50:39;10.32;;;5.68;;
30408;SDS011;17207;52.960;5.916;2023-02-15T11:53:15;8.13;;;5.13;;
30408;SDS011;17207;52.960;5.916;2023-02-15T11:55:42;9.38;;;5.63;;
30408;SDS011;17207;52.960;5.916;2023-02-15T12:00:38;9.70;;;5.88;;
30408;SDS011;17207;52.960;5.916;2023-02-15T12:05:53;12.00;;;5.53;;
30408;SDS011;17207;52.960;5.916;2023-02-15T12:08:22;12.15;;;6.25;;
30408;SDS011;17207;52.960;5.916;2023-02-15T12:13:23;11.25;;;5.78;;
30408;SDS011;17207;52.960;5.916;2023-02-15T12:15:51;12.02;;;6.97;;
30408;SDS011;17207;52.960;5.916;2023-02-15T12:20:43;11.88;;;6.18;;
30408;SDS011;17207;52.960;5.916;2023-02-15T12:23:12;12.30;;;5.80;;
30408;SDS011;17207;52.960;5.916;2023-02-15T12:25:49;13.13;;;6.32;;
30408;SDS011;17207;52.960;5.916;2023-02-15T12:30:48;13.00;;;5.35;;
30408;SDS011;17207;52.960;5.916;2023-02-15T12:35:41;9.35;;;5.28;;
30408;SDS011;17207;52.960;5.916;2023-02-15T12:40:34;9.77;;;5.30;;
30408;SDS011;17207;52.960;5.916;2023-02-15T12:43:01;9.15;;;5.60;;
30408;SDS011;17207;52.960;5.916;2023-02-15T12:45:34;9.68;;;5.68;;
30408;SDS011;17207;52.960;5.916;2023-02-15T12:50:35;10.88;;;5.28;;
30408;SDS011;17207;52.960;5.916;2023-02-15T12:55:52;11.43;;;6.13;;
30408;SDS011;17207;52.960;5.916;2023-02-15T12:58:20;11.98;;;5.65;;
30408;SDS011;17207;52.960;5.916;2023-02-15T13:00:47;12.65;;;6.10;;
30408;SDS011;17207;52.960;5.916;2023-02-15T13:03:18;10.00;;;6.00;;
30408;SDS011;17207;52.960;5.916;2023-02-15T13:05:44;10.98;;;5.93;;
30408;SDS011;17207;52.960;5.916;2023-02-15T13:08:18;8.85;;;5.30;;
30408;SDS011;17207;52.960;5.916;2023-02-15T13:10:56;9.77;;;5.45;;
30408;SDS011;17207;52.960;5.916;2023-02-15T13:13:24;8.85;;;5.63;;
30408;SDS011;17207;52.960;5.916;2023-02-15T13:15:52;10.57;;;5.65;;
30408;SDS011;17207;52.960;5.916;2023-02-15T13:18:28;13.88;;;5.75;;
30408;SDS011;17207;52.960;5.916;2023-02-15T13:20:54;13.25;;;5.80;;
30408;SDS011;17207;52.960;5.916;2023-02-15T13:23:24;9.18;;;5.38;;
30408;SDS011;17207;52.960;5.916;2023-02-15T13:25:52;12.80;;;5.95;;
30408;SDS011;17207;52.960;5.916;2023-02-15T13:28:20;15.85;;;6.25;;
30408;SDS011;17207;52.960;5.916;2023-02-15T13:30:48;9.95;;;5.88;;
30408;SDS011;17207;52.960;5.916;2023-02-15T13:33:31;9.07;;;5.53;;
30408;SDS011;17207;52.960;5.916;2023-02-15T13:44:04;11.70;;;5.70;;
30408;SDS011;17207;52.960;5.916;2023-02-15T14:17:18;7.28;;;4.82;;
30408;SDS011;17207;52.960;5.916;2023-02-15T14:20:01;9.40;;;5.18;;
30408;SDS011;17207;52.960;5.916;2023-02-15T14:22:35;9.13;;;5.43;;
30408;SDS011;17207;52.960;5.916;2023-02-15T14:27:45;12.02;;;6.00;;
30408;SDS011;17207;52.960;5.916;2023-02-15T14:30:21;7.45;;;4.90;;
30408;SDS011;17207;52.960;5.916;2023-02-15T14:32:49;9.55;;;4.95;;
30408;SDS011;17207;52.960;5.916;2023-02-15T14:35:18;9.35;;;5.35;;
30408;SDS011;17207;52.960;5.916;2023-02-15T14:41:12;10.15;;;5.72;;
30408;SDS011;17207;52.960;5.916;2023-02-15T14:43:37;9.25;;;5.15;;
30408;SDS011;17207;52.960;5.916;2023-02-15T14:48:36;10.20;;;4.97;;
30408;SDS011;17207;52.960;5.916;2023-02-15T14:51:04;11.30;;;5.35;;
30408;SDS011;17207;52.960;5.916;2023-02-15T14:53:37;7.43;;;5.18;;
30408;SDS011;17207;52.960;5.916;2023-02-15T14:58:54;8.63;;;5.05;;
30408;SDS011;17207;52.960;5.916;2023-02-15T15:01:27;9.32;;;5.35;;
30408;SDS011;17207;52.960;5.916;2023-02-15T15:03:55;10.05;;;5.70;;
30408;SDS011;17207;52.960;5.916;2023-02-15T15:06:27;10.50;;;5.47;;
30408;SDS011;17207;52.960;5.916;2023-02-15T15:08:58;11.02;;;5.03;;
30408;SDS011;17207;52.960;5.916;2023-02-15T15:13:58;10.77;;;4.90;;
30408;SDS011;17207;52.960;5.916;2023-02-15T15:18:50;7.88;;;5.00;;
30408;SDS011;17207;52.960;5.916;2023-02-15T15:24:02;8.45;;;5.10;;
30408;SDS011;17207;52.960;5.916;2023-02-15T15:26:30;8.82;;;4.80;;
30408;SDS011;17207;52.960;5.916;2023-02-15T15:29:01;8.60;;;4.93;;
30408;SDS011;17207;52.960;5.916;2023-02-15T15:39:20;9.13;;;4.93;;
30408;SDS011;17207;52.960;5.916;2023-02-15T15:41:53;7.45;;;4.50;;
30408;SDS011;17207;52.960;5.916;2023-02-15T15:47:00;8.73;;;4.82;;
30408;SDS011;17207;52.960;5.916;2023-02-15T15:49:34;7.10;;;4.75;;
30408;SDS011;17207;52.960;5.916;2023-02-15T15:52:01;10.18;;;4.90;;
30408;SDS011;17207;52.960;5.916;2023-02-15T15:54:28;13.27;;;6.95;;
30408;SDS011;17207;52.960;5.916;2023-02-15T15:56:59;9.50;;;4.95;;
30408;SDS011;17207;52.960;5.916;2023-02-15T15:59:30;9.27;;;4.95;;
30408;SDS011;17207;52.960;5.916;2023-02-15T16:02:03;11.15;;;5.20;;
30408;SDS011;17207;52.960;5.916;2023-02-15T16:04:32;8.00;;;5.43;;
30408;SDS011;17207;52.960;5.916;2023-02-15T16:09:40;7.90;;;5.10;;
30408;SDS011;17207;52.960;5.916;2023-02-15T16:12:13;10.52;;;4.85;;
30408;SDS011;17207;52.960;5.916;2023-02-15T16:14:40;9.82;;;5.22;;
30408;SDS011;17207;52.960;5.916;2023-02-15T16:19:34;9.55;;;5.20;;
30408;SDS011;17207;52.960;5.916;2023-02-15T16:24:37;10.25;;;5.60;;
30408;SDS011;17207;52.960;5.916;2023-02-15T16:30:22;15.15;;;5.00;;
30408;SDS011;17207;52.960;5.916;2023-02-15T16:32:48;12.52;;;5.13;;
30408;SDS011;17207;52.960;5.916;2023-02-15T16:35:16;11.73;;;5.75;;
30408;SDS011;17207;52.960;5.916;2023-02-15T16:37:42;6.95;;;4.50;;
30408;SDS011;17207;52.960;5.916;2023-02-15T16:43:01;7.35;;;4.57;;
30408;SDS011;17207;52.960;5.916;2023-02-15T16:45:29;8.40;;;4.82;;
30408;SDS011;17207;52.960;5.916;2023-02-15T16:47:57;12.73;;;5.40;;
30408;SDS011;17207;52.960;5.916;2023-02-15T16:50:30;10.65;;;5.47;;
30408;SDS011;17207;52.960;5.916;2023-02-15T16:52:57;10.43;;;5.47;;
30408;SDS011;17207;52.960;5.916;2023-02-15T16:55:48;8.75;;;5.30;;
30408;SDS011;17207;52.960;5.916;2023-02-15T16:58:13;8.68;;;5.03;;
30408;SDS011;17207;52.960;5.916;2023-02-15T17:00:40;11.40;;;5.93;;
30408;SDS011;17207;52.960;5.916;2023-02-15T17:06:19;8.85;;;4.57;;
30408;SDS011;17207;52.960;5.916;2023-02-15T17:08:46;12.88;;;5.53;;
30408;SDS011;17207;52.960;5.916;2023-02-15T17:16:27;12.02;;;5.70;;
30408;SDS011;17207;52.960;5.916;2023-02-15T17:18:54;11.85;;;6.10;;
30408;SDS011;17207;52.960;5.916;2023-02-15T17:21:32;9.27;;;5.20;;
30408;SDS011;17207;52.960;5.916;2023-02-15T17:24:00;11.32;;;5.60;;
30408;SDS011;17207;52.960;5.916;2023-02-15T17:26:30;9.20;;;5.60;;
30408;SDS011;17207;52.960;5.916;2023-02-15T17:31:44;12.82;;;5.20;;
30408;SDS011;17207;52.960;5.916;2023-02-15T17:34:41;15.35;;;5.43;;
30408;SDS011;17207;52.960;5.916;2023-02-15T17:36:59;10.48;;;5.72;;
30408;SDS011;17207;52.960;5.916;2023-02-15T17:41:53;7.88;;;5.03;;
30408;SDS011;17207;52.960;5.916;2023-02-15T17:44:19;18.77;;;6.10;;
30408;SDS011;17207;52.960;5.916;2023-02-15T17:46:45;9.05;;;5.20;;
30408;SDS011;17207;52.960;5.916;2023-02-15T17:49:15;10.88;;;5.78;;
30408;SDS011;17207;52.960;5.916;2023-02-15T17:51:44;11.73;;;5.70;;
30408;SDS011;17207;52.960;5.916;2023-02-15T17:54:10;11.02;;;5.25;;
30408;SDS011;17207;52.960;5.916;2023-02-15T17:56:55;10.93;;;4.70;;
30408;SDS011;17207;52.960;5.916;2023-02-15T17:59:21;17.52;;;5.45;;
30408;SDS011;17207;52.960;5.916;2023-02-15T18:01:48;18.02;;;5.10;;
30408;SDS011;17207;52.960;5.916;2023-02-15T18:04:33;13.68;;;5.30;;
30408;SDS011;17207;52.960;5.916;2023-02-15T18:07:19;10.93;;;5.35;;
30408;SDS011;17207;52.960;5.916;2023-02-15T18:10:17;14.18;;;5.63;;
30408;SDS011;17207;52.960;5.916;2023-02-15T18:13:02;12.73;;;4.88;;
30408;SDS011;17207;52.960;5.916;2023-02-15T18:15:28;11.63;;;5.32;;
30408;SDS011;17207;52.960;5.916;2023-02-15T18:17:54;11.43;;;5.22;;
30408;SDS011;17207;52.960;5.916;2023-02-15T18:20:21;13.80;;;5.50;;
30408;SDS011;17207;52.960;5.916;2023-02-15T18:22:48;11.45;;;5.28;;
30408;SDS011;17207;52.960;5.916;2023-02-15T18:25:17;10.30;;;5.60;;
30408;SDS011;17207;52.960;5.916;2023-02-15T18:27:43;7.75;;;5.07;;
30408;SDS011;17207;52.960;5.916;2023-02-15T18:30:16;10.48;;;5.32;;
30408;SDS011;17207;52.960;5.916;2023-02-15T18:32:43;12.20;;;5.35;;
30408;SDS011;17207;52.960;5.916;2023-02-15T18:35:17;10.32;;;5.05;;
30408;SDS011;17207;52.960;5.916;2023-02-15T18:37:43;12.73;;;5.78;;